createdAt,value
2023-01-02T00:01:23.805Z,8.32
2023-01-02T00:03:51.412Z,7.68
2023-01-02T00:06:19.229Z,7.95
2023-01-02T00:08:48.083Z,13.20
2023-01-02T00:11:15.582Z,11.80
2023-01-02T00:13:43.309Z,7.00
2023-01-02T00:16:10.907Z,10.65
2023-01-02T00:18:38.361Z,9.25
2023-01-02T00:21:06.724Z,8.98
2023-01-02T00:23:34.452Z,6.20
2023-01-02T00:26:03.288Z,9.35
2023-01-02T00:28:30.938Z,4.80
2023-01-02T00:30:59.545Z,7.75
2023-01-02T00:33:27.086Z,11.82
2023-01-02T00:35:54.544Z,11.75
2023-01-02T00:38:22.005Z,10.32
2023-01-02T00:40:49.480Z,10.40
2023-01-02T00:43:18.331Z,9.35
2023-01-02T00:45:46.503Z,9.60
2023-01-02T00:48:13.963Z,6.78
2023-01-02T00:50:41.442Z,11.25
2023-01-02T00:53:08.902Z,12.38
2023-01-02T00:55:36.358Z,6.20
2023-01-02T00:58:03.874Z,10.57
2023-01-02T01:00:32.693Z,8.55
2023-01-02T01:03:01.115Z,9.45
2023-01-02T01:05:30.022Z,7.65
2023-01-02T01:07:58.579Z,8.90
2023-01-02T01:10:27.426Z,8.27
2023-01-02T01:12:54.928Z,4.47
2023-01-02T01:15:22.471Z,8.90
2023-01-02T01:17:51.288Z,11.35
2023-01-02T01:20:18.843Z,7.97
2023-01-02T01:22:46.415Z,10.18
2023-01-02T01:25:14.415Z,9.07
2023-01-02T01:27:41.885Z,6.82
2023-01-02T01:30:10.299Z,11.23
2023-01-02T01:32:37.805Z,11.10
2023-01-02T01:35:07.907Z,11.55
2023-01-02T01:37:35.407Z,7.55
2023-01-02T01:40:03.017Z,9.93
2023-01-02T01:42:33.353Z,12.48
2023-01-02T01:45:01.175Z,7.30
2023-01-02T01:47:37.120Z,7.18
2023-01-02T01:50:10.096Z,4.28
2023-01-02T01:52:41.968Z,7.93
2023-01-02T01:55:15.357Z,11.00
2023-01-02T01:57:47.346Z,15.98
2023-01-02T02:00:18.342Z,6.93
2023-01-02T02:02:49.277Z,7.53
2023-01-02T02:05:22.927Z,7.32
2023-01-02T02:08:00.299Z,11.15
2023-01-02T02:10:27.878Z,5.82
2023-01-02T02:12:55.447Z,6.07
2023-01-02T02:15:29.552Z,11.20
2023-01-02T02:18:09.751Z,12.57
2023-01-02T02:20:49.280Z,10.10
2023-01-02T02:23:49.127Z,10.30
2023-01-02T02:26:32.096Z,14.10
2023-01-02T02:29:28.657Z,7.07
2023-01-02T02:32:06.139Z,6.22
2023-01-02T02:34:44.641Z,12.25
2023-01-02T02:37:17.529Z,10.13
2023-01-02T02:40:01.353Z,8.10
2023-01-02T02:42:37.160Z,6.85
2023-01-02T02:45:13.251Z,10.68
2023-01-02T02:47:49.017Z,7.32
2023-01-02T02:50:24.221Z,9.15
2023-01-02T02:55:26.513Z,7.50
2023-01-02T02:57:54.466Z,10.05
2023-01-02T03:00:25.086Z,10.20
2023-01-02T03:02:54.401Z,10.07
2023-01-02T03:05:27.351Z,6.30
2023-01-02T03:07:59.652Z,8.55
2023-01-02T03:10:35.296Z,10.15
2023-01-02T03:13:11.422Z,12.63
2023-01-02T03:15:46.738Z,9.43
2023-01-02T03:18:27.638Z,6.18
2023-01-02T03:21:02.364Z,8.02
2023-01-02T03:23:42.092Z,14.05
2023-01-02T03:26:12.162Z,10.27
2023-01-02T03:28:44.267Z,12.95
2023-01-02T03:31:17.032Z,9.98
2023-01-02T03:33:51.664Z,8.82
2023-01-02T03:36:25.364Z,9.80
2023-01-02T03:38:59.090Z,6.70
2023-01-02T03:41:35.667Z,8.23
2023-01-02T03:44:05.219Z,10.38
2023-01-02T03:46:39.935Z,8.68
2023-01-02T03:49:16.487Z,7.35
2023-01-02T03:51:44.142Z,9.25
2023-01-02T03:54:12.173Z,7.88
2023-01-02T03:56:49.289Z,7.10
2023-01-02T03:59:27.089Z,7.40
2023-01-02T04:01:59.721Z,8.02
2023-01-02T04:04:37.640Z,11.45
2023-01-02T04:07:12.140Z,12.02
2023-01-02T04:09:42.091Z,12.10
2023-01-02T04:12:13.957Z,9.73
2023-01-02T04:14:47.568Z,6.70
2023-01-02T04:17:18.613Z,5.47
2023-01-02T04:19:50.994Z,12.63
2023-01-02T04:22:22.604Z,12.20
2023-01-02T04:24:56.182Z,4.53
2023-01-02T04:27:26.516Z,6.18
2023-01-02T04:29:54.219Z,11.27
2023-01-02T04:32:27.064Z,9.27
2023-01-02T04:34:57.761Z,15.18
2023-01-02T04:37:30.626Z,9.68
2023-01-02T04:40:01.856Z,9.40
2023-01-02T04:42:29.364Z,6.60
2023-01-02T04:44:56.857Z,9.55
2023-01-02T04:47:24.331Z,8.25
2023-01-02T04:49:51.792Z,7.43
2023-01-02T04:52:20.645Z,5.82
2023-01-02T04:54:48.133Z,12.27
2023-01-02T04:57:15.616Z,11.35
2023-01-02T04:59:43.113Z,6.45
2023-01-02T05:02:10.778Z,5.93
2023-01-02T05:04:38.328Z,13.35
2023-01-02T05:07:06.679Z,12.35
2023-01-02T05:09:35.552Z,13.52
2023-01-02T05:12:03.055Z,8.73
2023-01-02T05:14:30.863Z,9.07
2023-01-02T05:16:58.368Z,12.02
2023-01-02T05:19:25.855Z,9.27
2023-01-02T05:22:16.464Z,7.80
2023-01-02T05:24:45.282Z,8.52
2023-01-02T05:27:12.859Z,8.50
2023-01-02T05:29:40.347Z,7.35
2023-01-02T05:32:07.912Z,5.88
2023-01-02T05:34:35.411Z,4.47
2023-01-02T05:37:02.944Z,8.55
2023-01-02T05:39:30.414Z,7.47
2023-01-02T05:41:59.240Z,11.48
2023-01-02T05:44:26.688Z,5.00
2023-01-02T05:46:54.762Z,10.07
2023-01-02T05:49:22.368Z,12.70
2023-01-02T05:51:49.847Z,6.35
2023-01-02T05:54:17.380Z,9.05
2023-01-02T05:56:44.910Z,6.90
2023-01-02T05:59:15.993Z,4.25
2023-01-02T06:01:43.617Z,7.70
2023-01-02T06:04:17.644Z,8.75
2023-01-02T06:06:47.486Z,9.93
2023-01-02T06:09:16.695Z,8.40
2023-01-02T06:11:44.729Z,5.38
2023-01-02T06:14:12.412Z,8.93
2023-01-02T06:16:41.397Z,7.95
2023-01-02T06:19:09.188Z,7.85
2023-01-02T06:21:36.673Z,5.65
2023-01-02T06:24:04.247Z,11.52
2023-01-02T06:26:35.261Z,11.55
2023-01-02T06:29:04.304Z,8.38
2023-01-02T06:31:34.321Z,10.77
2023-01-02T06:34:04.529Z,7.55
2023-01-02T06:36:34.061Z,7.72
2023-01-02T06:39:01.574Z,7.20
2023-01-02T06:41:29.445Z,7.05
2023-01-02T06:43:56.924Z,6.13
2023-01-02T06:46:25.134Z,7.88
2023-01-02T06:48:52.939Z,4.82
2023-01-02T06:51:23.174Z,6.65
2023-01-02T06:53:51.598Z,7.78
2023-01-02T06:56:20.920Z,4.95
2023-01-02T06:58:48.562Z,8.82
2023-01-02T07:01:17.957Z,5.32
2023-01-02T07:03:46.266Z,12.70
2023-01-02T07:06:16.706Z,6.25
2023-01-02T07:08:46.381Z,7.90
2023-01-02T07:11:15.836Z,6.28
2023-01-02T07:13:45.644Z,7.65
2023-01-02T07:16:15.534Z,4.00
2023-01-02T07:18:43.294Z,8.27
2023-01-02T07:21:12.013Z,5.00
2023-01-02T07:23:41.104Z,9.50
2023-01-02T07:26:11.346Z,6.13
2023-01-02T07:28:39.483Z,7.88
2023-01-02T07:31:08.607Z,6.05
2023-01-02T07:33:36.197Z,3.35
2023-01-02T07:36:05.688Z,5.00
2023-01-02T07:38:33.564Z,6.32
2023-01-02T07:41:01.786Z,5.85
2023-01-02T07:43:30.734Z,7.10
2023-01-02T07:46:03.148Z,5.45
2023-01-02T07:48:30.853Z,7.97
2023-01-02T07:51:01.218Z,7.53
2023-01-02T07:53:28.760Z,9.93
2023-01-02T07:55:56.329Z,11.95
2023-01-02T07:58:24.397Z,3.30
2023-01-02T08:00:55.614Z,6.32
2023-01-02T08:03:24.955Z,5.20
2023-01-02T08:05:52.454Z,10.60
2023-01-02T08:08:19.956Z,7.07
2023-01-02T08:10:47.402Z,6.65
2023-01-02T08:13:15.020Z,9.30
2023-01-02T08:15:42.513Z,7.05
2023-01-02T08:18:11.343Z,7.13
2023-01-02T08:20:38.888Z,5.68
2023-01-02T08:23:06.368Z,7.95
2023-01-02T08:25:33.816Z,9.38
2023-01-02T08:28:01.276Z,9.80
2023-01-02T08:30:28.805Z,8.45
2023-01-02T08:32:56.254Z,9.68
2023-01-02T08:35:37.362Z,4.53
2023-01-02T08:38:06.423Z,7.70
2023-01-02T08:40:34.042Z,9.07
2023-01-02T08:43:01.526Z,5.82
2023-01-02T08:45:29.026Z,10.10
2023-01-02T08:47:56.532Z,9.93
2023-01-02T08:50:25.418Z,4.97
2023-01-02T08:52:52.953Z,9.38
2023-01-02T08:55:20.508Z,10.30
2023-01-02T08:57:48.006Z,5.15
2023-01-02T09:00:16.324Z,6.47
2023-01-02T09:02:43.937Z,10.27
2023-01-02T09:05:11.609Z,10.18
2023-01-02T09:07:40.520Z,5.82
2023-01-02T09:10:09.114Z,6.90
2023-01-02T09:12:36.766Z,4.03
2023-01-02T09:15:04.619Z,5.20
2023-01-02T09:17:32.385Z,7.22
2023-01-02T09:19:59.841Z,8.30
2023-01-02T09:22:27.326Z,5.43
2023-01-02T09:24:56.112Z,4.93
2023-01-02T09:27:23.726Z,7.18
2023-01-02T09:29:51.205Z,7.45
2023-01-02T09:32:18.654Z,4.93
2023-01-02T09:34:50.273Z,3.97
2023-01-02T09:37:18.310Z,3.10
2023-01-02T09:39:45.793Z,2.28
2023-01-02T09:42:17.980Z,2.53
2023-01-02T09:44:49.628Z,2.83
2023-01-02T09:47:20.950Z,5.57
2023-01-02T09:49:50.710Z,4.00
2023-01-02T09:52:22.751Z,2.00
2023-01-02T09:54:50.349Z,2.85
2023-01-02T09:57:31.296Z,3.80
2023-01-02T10:00:04.501Z,4.15
2023-01-02T10:02:47.744Z,1.80
2023-01-02T10:05:33.885Z,6.00
2023-01-02T10:08:09.679Z,3.42
2023-01-02T10:10:41.755Z,3.25
2023-01-02T10:13:21.480Z,2.47
2023-01-02T10:15:51.371Z,4.32
2023-01-02T10:18:24.437Z,3.42
2023-01-02T10:20:57.031Z,3.15
2023-01-02T10:23:29.533Z,6.63
2023-01-02T10:26:02.152Z,4.72
2023-01-02T10:28:41.773Z,3.90
2023-01-02T10:31:16.578Z,5.90
2023-01-02T10:33:47.645Z,4.45
2023-01-02T10:36:24.627Z,6.70
2023-01-02T10:38:52.750Z,9.13
2023-01-02T10:41:20.623Z,5.97
2023-01-02T10:43:55.120Z,7.45
2023-01-02T10:46:22.834Z,6.88
2023-01-02T10:48:52.446Z,7.55
2023-01-02T10:51:20.188Z,10.10
2023-01-02T10:54:01.727Z,6.20
2023-01-02T10:56:32.103Z,4.97
2023-01-02T10:59:01.760Z,5.28
2023-01-02T11:01:29.858Z,7.75
2023-01-02T11:04:21.613Z,4.97
2023-01-02T11:06:57.706Z,6.93
2023-01-02T11:09:26.940Z,6.80
2023-01-02T11:11:56.984Z,8.13
2023-01-02T11:14:31.768Z,6.30
2023-01-02T11:17:05.184Z,5.57
2023-01-02T11:19:39.924Z,6.07
2023-01-02T11:22:08.847Z,5.43
2023-01-02T11:25:00.014Z,6.28
2023-01-02T11:27:32.516Z,6.63
2023-01-02T11:30:02.776Z,7.28
2023-01-02T11:32:38.475Z,6.72
2023-01-02T11:35:27.383Z,5.47
2023-01-02T11:37:54.943Z,6.00
2023-01-02T11:40:27.240Z,6.57
2023-01-02T11:43:15.185Z,5.95
2023-01-02T11:45:44.869Z,5.75
2023-01-02T11:48:16.301Z,5.53
2023-01-02T11:50:44.919Z,7.57
2023-01-02T11:53:19.746Z,7.93
2023-01-02T11:55:52.697Z,6.55
2023-01-02T11:58:27.511Z,7.05
2023-01-02T12:01:02.927Z,8.20
2023-01-02T12:03:33.035Z,8.30
2023-01-02T12:06:12.982Z,7.40
2023-01-02T12:08:52.107Z,7.15
2023-01-02T12:11:34.213Z,8.30
2023-01-02T12:14:11.521Z,6.85
2023-01-02T12:16:51.788Z,8.63
2023-01-02T12:19:46.123Z,7.57
2023-01-02T12:22:32.915Z,7.57
2023-01-02T12:25:13.357Z,5.82
2023-01-02T12:27:49.544Z,8.63
2023-01-02T12:30:19.286Z,7.45
2023-01-02T12:33:13.766Z,7.05
2023-01-02T12:35:54.667Z,6.93
2023-01-02T12:38:33.679Z,6.80
2023-01-02T12:41:16.128Z,6.28
2023-01-02T12:44:06.207Z,7.05
2023-01-02T12:46:51.163Z,7.70
2023-01-02T12:49:36.068Z,5.65
2023-01-02T12:52:13.632Z,6.20
2023-01-02T12:54:57.129Z,6.70
2023-01-02T12:57:33.229Z,6.20
2023-01-02T13:00:23.686Z,6.28
2023-01-02T13:03:09.548Z,5.55
2023-01-02T13:05:45.075Z,8.00
2023-01-02T13:08:18.081Z,9.40
2023-01-02T13:10:47.833Z,6.15
2023-01-02T13:13:16.793Z,9.50
2023-01-02T13:15:50.913Z,7.65
2023-01-02T13:18:25.536Z,8.43
2023-01-02T13:21:01.540Z,7.32
2023-01-02T13:23:34.314Z,7.25
2023-01-02T13:26:06.809Z,7.60
2023-01-02T13:28:38.703Z,7.07
2023-01-02T13:33:55.646Z,8.35
2023-01-02T13:36:28.265Z,8.25
2023-01-02T13:38:59.557Z,7.88
2023-01-02T13:41:28.638Z,9.23
2023-01-02T13:43:59.741Z,8.55
2023-01-02T13:47:02.010Z,7.70
2023-01-02T13:49:20.834Z,8.75
2023-01-02T13:51:49.775Z,7.93
2023-01-02T13:54:20.683Z,8.02
2023-01-02T13:57:17.716Z,6.57
2023-01-02T13:59:52.698Z,8.57
2023-01-02T14:02:21.370Z,8.25
2023-01-02T14:04:49.159Z,8.20
2023-01-02T14:07:44.322Z,9.05
2023-01-02T14:10:45.503Z,7.67
2023-01-02T14:13:22.025Z,7.28
2023-01-02T14:16:28.302Z,10.98
2023-01-02T14:19:07.076Z,9.75
2023-01-02T14:21:37.503Z,11.43
2023-01-02T14:24:17.277Z,7.68
2023-01-02T14:26:53.345Z,8.55
2023-01-02T14:29:22.590Z,9.77
2023-01-02T14:31:51.592Z,8.23
2023-01-02T14:34:24.708Z,7.30
2023-01-02T14:36:56.138Z,7.53
2023-01-02T14:39:28.465Z,8.75
2023-01-02T14:42:33.221Z,8.02
2023-01-02T14:45:05.886Z,8.73
2023-01-02T14:47:38.664Z,9.02
2023-01-02T14:53:03.267Z,9.05
2023-01-02T14:55:41.620Z,9.93
2023-01-02T14:58:19.182Z,7.55
2023-01-02T15:00:49.711Z,9.02
2023-01-02T15:03:28.028Z,9.23
2023-01-02T15:06:00.753Z,8.80
2023-01-02T15:08:36.074Z,10.38
2023-01-02T15:14:04.046Z,11.40
2023-01-02T15:16:39.047Z,8.75
2023-01-02T15:19:07.047Z,10.48
2023-01-02T15:21:40.737Z,7.97
2023-01-02T15:24:17.207Z,9.85
2023-01-02T15:26:46.055Z,11.50
2023-01-02T15:29:22.060Z,9.80
2023-01-02T15:31:54.109Z,11.68
2023-01-02T15:34:29.872Z,9.10
2023-01-02T15:37:01.858Z,11.75
2023-01-02T15:39:34.026Z,9.35
2023-01-02T15:42:10.060Z,11.38
2023-01-02T15:44:57.782Z,11.38
2023-01-02T15:47:28.213Z,8.40
2023-01-02T15:49:57.360Z,10.25
2023-01-02T15:52:27.237Z,8.45
2023-01-02T15:54:55.328Z,8.15
2023-01-02T15:57:28.530Z,11.18
2023-01-02T15:59:56.433Z,11.93
2023-01-02T16:02:36.978Z,13.07
2023-01-02T16:05:13.792Z,11.35
2023-01-02T16:07:42.281Z,9.52
2023-01-02T16:10:18.042Z,17.45
2023-01-02T16:12:52.653Z,10.45
2023-01-02T16:15:24.904Z,9.85
2023-01-02T16:17:56.545Z,10.25
2023-01-02T16:20:26.234Z,11.75
2023-01-02T16:22:57.611Z,8.98
2023-01-02T16:25:28.513Z,11.77
2023-01-02T16:28:01.713Z,11.88
2023-01-02T16:30:33.076Z,8.60
2023-01-02T16:33:02.945Z,9.02
2023-01-02T16:35:34.218Z,10.95
2023-01-02T16:38:03.888Z,7.93
2023-01-02T16:40:59.903Z,8.25
2023-01-02T16:43:41.055Z,7.82
2023-01-02T16:46:14.073Z,8.48
2023-01-02T16:48:43.224Z,6.80
2023-01-02T16:51:10.870Z,6.75
2023-01-02T16:53:41.709Z,9.80
2023-01-02T16:59:19.150Z,8.50
2023-01-02T17:01:46.822Z,8.80
2023-01-02T17:04:16.124Z,8.68
2023-01-02T17:06:43.688Z,8.50
2023-01-02T17:09:11.262Z,10.43
2023-01-02T17:11:59.536Z,13.20
2023-01-02T17:14:29.229Z,13.07
2023-01-02T17:16:57.031Z,8.85
2023-01-02T17:19:24.972Z,9.35
2023-01-02T17:21:55.547Z,7.53
2023-01-02T17:24:23.075Z,5.05
2023-01-02T17:26:50.596Z,7.82
2023-01-02T17:29:18.119Z,5.10
2023-01-02T17:31:46.966Z,4.38
2023-01-02T17:34:14.466Z,3.55
2023-01-02T17:36:42.415Z,3.72
2023-01-02T17:39:09.967Z,4.57
2023-01-02T17:41:37.466Z,2.50
2023-01-02T17:44:05.352Z,2.10
2023-01-02T17:49:21.889Z,1.80
2023-01-02T17:51:49.537Z,4.55
2023-01-02T17:54:17.139Z,3.22
2023-01-02T17:56:44.809Z,1.85
2023-01-02T17:59:13.808Z,2.20
2023-01-02T18:01:41.608Z,2.03
2023-01-02T18:04:09.168Z,2.47
2023-01-02T18:06:38.208Z,1.80
2023-01-02T18:09:06.288Z,2.88
2023-01-02T18:11:35.062Z,6.35
2023-01-02T18:14:04.121Z,2.85
2023-01-02T18:16:33.902Z,2.53
2023-01-02T18:19:04.268Z,1.70
2023-01-02T18:21:34.567Z,2.33
2023-01-02T18:24:11.899Z,2.00
2023-01-02T18:26:39.438Z,3.70
2023-01-02T18:29:14.144Z,4.35
2023-01-02T18:31:43.513Z,3.45
2023-01-02T18:34:46.583Z,2.70
2023-01-02T18:37:18.966Z,5.00
2023-01-02T18:39:49.021Z,3.03
2023-01-02T18:42:19.589Z,4.70
2023-01-02T18:44:48.156Z,3.47
2023-01-02T18:47:25.203Z,2.33
2023-01-02T18:49:53.224Z,2.40
2023-01-02T18:52:26.289Z,4.40
2023-01-02T18:54:59.928Z,5.20
2023-01-02T18:57:33.020Z,3.40
2023-01-02T19:00:14.424Z,5.63
2023-01-02T19:02:53.217Z,4.05
2023-01-02T19:05:25.328Z,6.70
2023-01-02T19:07:53.666Z,3.75
2023-01-02T19:10:36.990Z,3.40
2023-01-02T19:13:08.146Z,4.13
2023-01-02T19:15:40.477Z,5.07
2023-01-02T19:18:20.496Z,5.88
2023-01-02T19:20:51.916Z,8.77
2023-01-02T19:23:26.138Z,3.60
2023-01-02T19:25:56.541Z,4.55
2023-01-02T19:28:28.329Z,3.65
2023-01-02T19:30:56.477Z,4.68
2023-01-02T19:33:39.075Z,8.38
2023-01-02T19:36:16.398Z,5.28
2023-01-02T19:38:45.625Z,5.38
2023-01-02T19:41:14.557Z,3.97
2023-01-02T19:43:42.112Z,4.78
2023-01-02T19:46:09.661Z,3.58
2023-01-02T19:48:37.225Z,4.25
2023-01-02T19:51:05.004Z,7.05
2023-01-02T19:53:32.522Z,3.78
2023-01-02T19:56:00.076Z,6.78
2023-01-02T19:58:28.937Z,6.28
2023-01-02T20:00:56.473Z,14.10
2023-01-02T20:03:24.032Z,7.47
2023-01-02T20:05:51.546Z,6.72
2023-01-02T20:08:19.056Z,7.82
2023-01-02T20:10:46.779Z,6.95
2023-01-02T20:13:14.264Z,5.63
2023-01-02T20:15:43.314Z,8.68
2023-01-02T20:18:10.855Z,8.02
2023-01-02T20:20:38.625Z,8.38
2023-01-02T20:23:06.351Z,7.53
2023-01-02T20:25:33.841Z,6.60
2023-01-02T20:28:03.163Z,6.55
2023-01-02T20:30:30.791Z,8.32
2023-01-02T20:32:59.932Z,11.45
2023-01-02T20:35:27.437Z,7.85
2023-01-02T20:37:54.954Z,12.43
2023-01-02T20:40:22.448Z,8.10
2023-01-02T20:42:49.943Z,8.63
2023-01-02T20:45:17.603Z,9.68
2023-01-02T20:47:45.211Z,9.30
2023-01-02T20:50:14.098Z,8.82
2023-01-02T20:52:41.580Z,8.15
2023-01-02T20:55:10.114Z,5.57
2023-01-02T20:57:37.611Z,7.00
2023-01-02T21:00:09.467Z,7.30
2023-01-02T21:02:37.509Z,10.07
2023-01-02T21:05:05.705Z,9.38
2023-01-02T21:07:34.607Z,8.77
2023-01-02T21:10:02.175Z,7.82
2023-01-02T21:12:47.448Z,7.47
2023-01-02T21:15:34.933Z,9.57
2023-01-02T21:18:02.735Z,11.30
2023-01-02T21:20:30.221Z,9.10
2023-01-02T21:22:59.041Z,7.47
2023-01-02T21:25:26.720Z,8.55
2023-01-02T21:27:54.200Z,9.50
2023-01-02T21:30:21.832Z,7.07
2023-01-02T21:32:49.379Z,9.60
2023-01-02T21:35:16.924Z,9.65
2023-01-02T21:37:44.405Z,13.02
2023-01-02T21:40:13.644Z,11.68
2023-01-02T21:42:44.834Z,9.43
2023-01-02T21:45:12.885Z,11.82
2023-01-02T21:47:40.419Z,9.68
2023-01-02T21:50:08.694Z,16.00
2023-01-02T21:52:36.554Z,9.98
2023-01-02T21:55:04.425Z,10.80
2023-01-02T21:58:11.054Z,12.82
2023-01-02T22:00:22.767Z,8.00
2023-01-02T22:02:50.367Z,10.68
2023-01-02T22:05:19.040Z,8.82
2023-01-02T22:07:47.291Z,9.95
2023-01-02T22:10:16.352Z,9.95
2023-01-02T22:12:45.220Z,9.13
2023-01-02T22:15:13.333Z,11.60
2023-01-02T22:17:41.168Z,9.07
2023-01-02T22:20:09.732Z,13.38
2023-01-02T22:22:37.483Z,10.68
2023-01-02T22:25:05.756Z,10.75
2023-01-02T22:27:33.368Z,10.25
2023-01-02T22:30:22.876Z,13.70
2023-01-02T22:32:50.978Z,13.13
2023-01-02T22:35:18.724Z,13.02
2023-01-02T22:37:46.266Z,10.13
2023-01-02T22:40:14.277Z,11.30
2023-01-02T22:43:01.124Z,11.13
2023-01-02T22:45:36.258Z,14.95
2023-01-02T22:48:07.233Z,11.43
2023-01-02T22:50:45.689Z,11.32
2023-01-02T22:53:22.759Z,12.70
2023-01-02T22:55:50.973Z,10.82
2023-01-02T22:58:19.210Z,13.32
2023-01-02T23:00:57.196Z,12.55
2023-01-02T23:03:24.716Z,12.43
2023-01-02T23:05:52.180Z,14.32
2023-01-02T23:08:19.728Z,11.80
2023-01-02T23:10:47.441Z,15.02
2023-01-02T23:13:14.982Z,12.75
2023-01-02T23:15:56.421Z,12.38
2023-01-02T23:18:43.822Z,12.80
2023-01-02T23:21:11.499Z,13.93
2023-01-02T23:23:39.119Z,15.55
2023-01-02T23:26:07.471Z,12.77
2023-01-02T23:31:23.379Z,13.68
2023-01-02T23:33:52.229Z,15.15
2023-01-02T23:36:19.922Z,15.20
2023-01-02T23:38:47.629Z,13.23
2023-01-02T23:41:15.155Z,17.20
2023-01-02T23:43:42.644Z,13.77
2023-01-02T23:46:10.344Z,14.43
2023-01-02T23:48:37.962Z,15.30
2023-01-02T23:51:07.254Z,13.05
2023-01-02T23:53:35.178Z,14.23
2023-01-02T23:56:03.794Z,10.02
2023-01-02T23:58:31.250Z,15.20
